Nearby METAR Reports

Here are local weather reports from nearby weather stations and airports.

KHFD - Hartford/Brainar, Connecticut, USA
Distance from station: NE 5mi, 8km
Updated: Sun, 04/30/2017 7:53pm EDT
Overcast
Overcast
 Wind from S
Wind: S 12 mph , 19 km/h
Temperature: 50°F , 10°C
Wind Chill: 45°F , 7°C
Dew Point: 37°F , 3°C
Humidity: 62%
Barometer: 30.22 inHg , 1023.4 hPa
Clouds: Overcast
Visibility: 10 miles , 16 km
Cloud details: Overcast 3900 ft
2017/04/30 23:53 KHFD 302353Z 18010KT 10SM OVC039 10/03 A3022 RMK AO2 SLP234 60000 T01000033 10156 20100 51001
KMMK - Meriden, Connecticut, USA
Distance from station: SSW 13mi, 21km
Updated: Sun, 04/30/2017 7:53pm EDT
Overcast
Overcast
 Wind from S
Wind: S 9 mph , 15 km/h
Temperature: 52°F , 11°C
Dew Point: 36°F , 2°C
Humidity: 54%
Barometer: 30.23 inHg , 1023.7 hPa
Clouds: Overcast
Visibility: 10 miles , 16 km
Cloud details: Overcast 3600 ft
2017/04/30 23:53 KMMK 302353Z AUTO 17008KT 10SM OVC036 11/02 A3023 RMK AO2 SLP236 T01060022 10161 20106 58001 TSNO
 
KBDL - Windsor Locks, Connecticut, USA
Distance from station: N 17mi, 28km
Updated: Sun, 04/30/2017 7:51pm EDT
Overcast
Overcast
 Wind from S
Wind: S 12 mph , 19 km/h
Temperature: 52°F , 11°C
Dew Point: 39°F , 4°C
Humidity: 62%
Barometer: 30.21 inHg , 1023 hPa
Clouds: Overcast
Visibility: 10 miles , 16 km
Cloud details: Overcast 3900 ft
2017/04/30 23:51 KBDL 302351Z 18010KT 10SM OVC039 11/04 A3021 RMK AO2 SLP232 T01110039 10128 20106 55003
KSNC - Chester, Connecticut, USA
Distance from station: SSE 24mi, 38km
Updated: Sun, 04/30/2017 8:15pm EDT
Mostly cloudy
Mostly cloudy
 Wind from SE
Wind: SE 6 mph , 9 km/h
Temperature: 46°F , 8°C
Wind Chill: 43°F , 6°C
Dew Point: 36°F , 2°C
Humidity: 66%
Barometer: 30.22 inHg , 1023.4 hPa
Clouds: Mostly cloudy
Visibility: 10 miles , 16 km
Cloud details: Partly cloudy 3100 ft
Mostly cloudy 5000 ft
2017/05/01 00:15 KSNC 010015Z AUTO 13005KT 10SM SCT031 BKN050 08/02 A3022 RMK AO2
 
KOXC - Oxford/Waterbury, Connecticut, USA
Distance from station: SW 26mi, 42km
Updated: Sun, 04/30/2017 7:47pm EDT
Overcast
Overcast
 Wind from SSE
Wind: SSE 8 mph , 13 km/h
Temperature: 48°F , 9°C
Wind Chill: 44°F , 7°C
Dew Point: 34°F , 1°C
Humidity: 58%
Barometer: 30.22 inHg , 1023.4 hPa
Clouds: Overcast
Visibility: 10 miles , 16 km
Cloud details: Overcast 3000 ft
2017/04/30 23:47 KOXC 302347Z 16007KT 10SM OVC030 09/01 A3022
KIJD - Willimantic, Connecticut, USA
Distance from station: E 28mi, 45km
Updated: Sun, 04/30/2017 7:52pm EDT
Overcast
Overcast
 Wind from S
Wind: S 8 mph , 13 km/h
Temperature: 52°F , 11°C
Dew Point: 39°F , 4°C
Humidity: 62%
Barometer: 30.23 inHg , 1023.7 hPa
Clouds: Overcast
Visibility: 10 miles , 16 km
Cloud details: Overcast 3700 ft
2017/04/30 23:52 KIJD 302352Z AUTO 17007KT 10SM OVC037 11/04 A3023 RMK AO2 SLP238 60000 T01110039 10156 20111 50000
 
KHVN - New Haven/Tweed, Connecticut, USA
Distance from station: SSW 30mi, 48km
Updated: Sun, 04/30/2017 7:53pm EDT
Mostly cloudy
Mostly cloudy
 Wind from ESE
Wind: ESE 10 mph , 17 km/h
Temperature: 48°F , 9°C
Wind Chill: 44°F , 7°C
Dew Point: 37°F , 3°C
Humidity: 66%
Barometer: 30.24 inHg , 1024 hPa
Clouds: Mostly cloudy
Visibility: 10 miles , 16 km
Cloud details: Few Clouds 3500 ft
Partly cloudy 6000 ft
Mostly cloudy 20000 ft
2017/04/30 23:53 KHVN 302353Z 11009KT 10SM FEW035 SCT060 BKN200 09/03 A3024 RMK AO2 SLP238 T00890033 10122 20089 58005
KBAF - Westfield, Massachusetts, USA
Distance from station: 0 33mi, 54km
Updated: Sun, 04/30/2017 7:53pm EDT
Overcast
Overcast
 Wind from SSE
Wind: SSE 3 mph , 6 km/h
Temperature: 52°F , 11°C
Dew Point: 46°F , 8°C
Humidity: 82%
Barometer: 30.18 inHg , 1022 hPa
Clouds: Overcast
Visibility: 10 miles , 16 km
Cloud details: Overcast 4000 ft
2017/04/30 23:53 KBAF 302353Z 16003KT 10SM OVC040 11/08 A3018 RMK AO2 SLP223 60000 T01110083 10117 20089 58011
 
KCEF - Chicopee/Westove, Massachusetts, USA
Distance from station: NNE 37mi, 60km
Updated: Sun, 04/30/2017 7:58pm EDT
Overcast
Overcast
 Wind from S
Wind: S 8 mph , 13 km/h
Temperature: 54°F , 12°C
Dew Point: 45°F , 7°C
Humidity: 72%
Barometer: 30.17 inHg , 1021.7 hPa
Clouds: Overcast
Visibility: 10 miles , 16 km
Cloud details: Overcast 4000 ft
2017/04/30 23:58 KCEF 302358Z 17007KT 10SM OVC040 12/07 A3017 RMK AO2A SLP223 60000 T01210072 10122 20100 57014
KBDR - Bridgeport, Connecticut, USA
Distance from station: SSW 42mi, 67km
Updated: Sun, 04/30/2017 7:52pm EDT
Mostly cloudy
Mostly cloudy
 Wind from E
Wind: E 10 mph , 17 km/h
Temperature: 52°F , 11°C
Dew Point: 43°F , 6°C
Humidity: 72%
Barometer: 30.23 inHg , 1023.7 hPa
Clouds: Mostly cloudy
Visibility: 10 miles , 16 km
Cloud details: Mostly cloudy 3500 ft
2017/04/30 23:52 KBDR 302352Z 09009KT 10SM BKN035 11/06 A3023 RMK AO2 SLP236 T01060061 10139 20106 58005 $
 
KGON - Groton/New Londo, Connecticut, USA
Distance from station: SE 42mi, 68km
Updated: Sun, 04/30/2017 7:56pm EDT
Overcast
Overcast
 Wind from ESE
Wind: ESE 9 mph , 15 km/h
Temperature: 48°F , 9°C
Wind Chill: 44°F , 7°C
Dew Point: 39°F , 4°C
Humidity: 71%
Barometer: 30.24 inHg , 1024 hPa
Clouds: Overcast
Visibility: 10 miles , 16 km
Cloud details: Overcast 3900 ft
2017/04/30 23:56 KGON 302356Z 12008KT 10SM OVC039 09/04 A3024 RMK AO2 SLP241 T00890044 10106 20089 58004
KDXR - Danbury, Connecticut, USA
Distance from station: WSW 45mi, 73km
Updated: Sun, 04/30/2017 7:53pm EDT
Overcast
Overcast
 Wind from ESE
Wind: ESE 7 mph , 11 km/h
Temperature: 48°F , 9°C
Wind Chill: 45°F , 7°C
Dew Point: 39°F , 4°C
Humidity: 71%
Barometer: 30.23 inHg , 1023.7 hPa
Clouds: Overcast
Visibility: 10 miles , 16 km
Cloud details: Overcast 3200 ft
2017/04/30 23:53 KDXR 302353Z 12006KT 10SM OVC032 09/04 A3023 RMK AO2 SLP238 T00940039 10139 20094 55000